Time;durP1;ratioP1;P1;durP2;ratioP2;P2;SDS_P1;SDS_P2;PMS_P1;PMS_P2;Temp;Humidity;BMP_temperature;BMP_pressure;BME280_temperature;BME280_humidity;BME280_pressure;Samples;Min_cycle;Max_cycle;Signal;HPM_P1;HPM_P2
2022/03/15 00:00:50;;;;;;;39.70;28.90;;;;;;;;;;5113744;28;20391;-49
2022/03/15 00:03:16;;;;;;;37.58;29.20;;;;;;;;;;5125298;27;20475;-49
2022/03/15 00:05:42;;;;;;;35.28;28.17;;;;;;;;;;5132760;27;20072;-51
2022/03/15 00:08:09;;;;;;;39.05;29.58;;;;;;;;;;5132477;27;20043;-50
2022/03/15 00:10:35;;;;;;;40.65;29.73;;;;;;;;;;5133248;27;20023;-50
2022/03/15 00:13:01;;;;;;;36.67;28.25;;;;;;;;;;5132217;27;20476;-48
2022/03/15 00:15:27;;;;;;;37.88;29.17;;;;;;;;;;5133114;28;20468;-50
2022/03/15 00:17:54;;;;;;;36.40;30.05;;;;;;;;;;5135055;27;20043;-51
2022/03/15 00:20:22;;;;;;;37.38;29.05;;;;;;;;;;5103031;27;20035;-49
2022/03/15 00:22:49;;;;;;;39.90;28.98;;;;;;;;;;5132707;27;20157;-49
2022/03/15 00:25:18;;;;;;;37.97;29.13;;;;;;;;;;5137928;27;20035;-50
2022/03/15 00:27:45;;;;;;;36.22;28.83;;;;;;;;;;5130532;27;20037;-48
2022/03/15 00:30:12;;;;;;;39.70;29.75;;;;;;;;;;5140158;27;20031;-49
2022/03/15 00:32:38;;;;;;;37.42;27.83;;;;;;;;;;5138537;27;20034;-48
2022/03/15 00:35:13;;;;;;;36.85;29.05;;;;;;;;;;5140402;27;20025;-48
2022/03/15 00:37:40;;;;;;;35.70;27.60;;;;;;;;;;5115473;28;20059;-48
2022/03/15 00:40:07;;;;;;;39.17;29.73;;;;;;;;;;5131581;27;20527;-48
2022/03/15 00:42:33;;;;;;;37.35;28.52;;;;;;;;;;5138791;27;20053;-50
2022/03/15 00:45:01;;;;;;;36.45;29.20;;;;;;;;;;5140236;27;20019;-48
2022/03/15 00:47:27;;;;;;;38.42;29.10;;;;;;;;;;5138998;27;20462;-49
2022/03/15 00:49:54;;;;;;;40.90;29.90;;;;;;;;;;5139676;27;20130;-49
2022/03/15 00:52:20;;;;;;;36.85;28.85;;;;;;;;;;5137806;27;20396;-51
2022/03/15 00:54:46;;;;;;;37.47;28.98;;;;;;;;;;5140027;27;20426;-49
2022/03/15 00:57:12;;;;;;;40.88;30.27;;;;;;;;;;5138323;27;20042;-52
2022/03/15 00:59:38;;;;;;;39.85;30.13;;;;;;;;;;5119437;28;20047;-49
2022/03/15 01:02:05;;;;;;;38.85;29.40;;;;;;;;;;5133512;27;20051;-48
2022/03/15 01:04:31;;;;;;;42.93;31.23;;;;;;;;;;5098521;27;20590;-52
2022/03/15 01:06:57;;;;;;;37.87;31.37;;;;;;;;;;5121161;27;20388;-49
2022/03/15 01:09:23;;;;;;;38.83;29.27;;;;;;;;;;5138254;27;20034;-49
2022/03/15 01:11:49;;;;;;;35.65;29.02;;;;;;;;;;5139705;27;20126;-50
2022/03/15 01:14:15;;;;;;;37.95;30.20;;;;;;;;;;5137744;27;20185;-50
2022/03/15 01:16:41;;;;;;;39.47;31.55;;;;;;;;;;5139998;27;20135;-53
2022/03/15 01:19:08;;;;;;;42.67;31.58;;;;;;;;;;5138340;27;20067;-50
2022/03/15 01:21:38;;;;;;;37.10;30.10;;;;;;;;;;5139800;27;20101;-52
2022/03/15 01:24:08;;;;;;;38.30;29.88;;;;;;;;;;5137953;27;20496;-51
2022/03/15 01:26:34;;;;;;;41.00;31.00;;;;;;;;;;5139775;27;20019;-52
2022/03/15 01:29:02;;;;;;;39.17;30.23;;;;;;;;;;5136375;27;20485;-52
2022/03/15 01:31:28;;;;;;;43.03;32.30;;;;;;;;;;5134749;27;20043;-51
2022/03/15 01:33:55;;;;;;;41.63;29.50;;;;;;;;;;5135046;27;20030;-48
2022/03/15 01:36:21;;;;;;;37.67;30.73;;;;;;;;;;5136287;27;20027;-49
2022/03/15 01:38:47;;;;;;;39.70;31.77;;;;;;;;;;5134947;27;20039;-49
2022/03/15 01:41:13;;;;;;;45.35;31.75;;;;;;;;;;5136257;27;20034;-51
2022/03/15 01:43:40;;;;;;;39.85;31.23;;;;;;;;;;5134803;27;20023;-51
2022/03/15 01:46:09;;;;;;;42.13;31.98;;;;;;;;;;5136063;27;20016;-48
2022/03/15 01:48:35;;;;;;;39.20;30.80;;;;;;;;;;5115802;27;20077;-50
2022/03/15 01:51:02;;;;;;;41.07;32.70;;;;;;;;;;5126898;27;20081;-50
2022/03/15 01:53:28;;;;;;;39.93;30.50;;;;;;;;;;5134270;27;20475;-53
2022/03/15 01:55:55;;;;;;;41.92;33.15;;;;;;;;;;5116687;27;20035;-49
2022/03/15 01:58:21;;;;;;;42.63;32.93;;;;;;;;;;5106747;27;20475;-48
2022/03/15 02:00:48;;;;;;;42.30;32.37;;;;;;;;;;5129542;27;20033;-48
2022/03/15 02:03:14;;;;;;;45.23;33.10;;;;;;;;;;5117151;27;20032;-55
2022/03/15 02:05:40;;;;;;;40.57;32.13;;;;;;;;;;5119734;27;20038;-54
2022/03/15 02:08:16;;;;;;;41.90;32.40;;;;;;;;;;5114470;28;20465;-53
2022/03/15 02:10:42;;;;;;;45.17;33.37;;;;;;;;;;5111071;27;20038;-52
2022/03/15 02:13:09;;;;;;;44.23;33.27;;;;;;;;;;5114501;28;20066;-51
2022/03/15 02:15:35;;;;;;;42.30;32.27;;;;;;;;;;5104635;27;20114;-51
2022/03/15 02:18:01;;;;;;;40.35;31.10;;;;;;;;;;5095887;28;20055;-49
2022/03/15 02:20:28;;;;;;;43.30;32.22;;;;;;;;;;5113873;27;20023;-49
2022/03/15 02:22:54;;;;;;;40.43;32.03;;;;;;;;;;5125675;27;20410;-49
2022/03/15 02:25:20;;;;;;;41.37;32.30;;;;;;;;;;5127644;27;20035;-50
2022/03/15 02:27:46;;;;;;;42.30;31.73;;;;;;;;;;5117776;27;20122;-49
2022/03/15 02:30:13;;;;;;;41.65;32.05;;;;;;;;;;5134743;27;20088;-55
2022/03/15 02:32:39;;;;;;;37.43;30.73;;;;;;;;;;5097321;28;20024;-53
2022/03/15 02:35:05;;;;;;;40.37;30.70;;;;;;;;;;5119164;27;20030;-51
2022/03/15 02:37:32;;;;;;;39.77;31.17;;;;;;;;;;5126677;27;20039;-48
2022/03/15 02:39:58;;;;;;;40.53;32.40;;;;;;;;;;5135235;27;20447;-50
2022/03/15 02:42:24;;;;;;;42.23;33.23;;;;;;;;;;5132527;27;20416;-52
2022/03/15 02:44:50;;;;;;;45.23;34.30;;;;;;;;;;5135187;27;20019;-49
2022/03/15 02:47:16;;;;;;;37.90;31.43;;;;;;;;;;5131838;27;20043;-52
2022/03/15 02:49:42;;;;;;;41.50;31.55;;;;;;;;;;5133048;27;20456;-50
2022/03/15 02:52:10;;;;;;;46.67;31.73;;;;;;;;;;5113634;27;20028;-51
2022/03/15 02:54:40;;;;;;;39.07;31.23;;;;;;;;;;5132402;27;20054;-52
2022/03/15 02:57:08;;;;;;;40.90;31.53;;;;;;;;;;5121035;27;20476;-49
2022/03/15 02:59:34;;;;;;;41.90;33.13;;;;;;;;;;5116141;27;20046;-50
2022/03/15 03:02:00;;;;;;;37.93;31.23;;;;;;;;;;5116954;27;20345;-53
2022/03/15 03:04:27;;;;;;;43.90;33.10;;;;;;;;;;5114167;28;20023;-49
2022/03/15 03:06:53;;;;;;;44.60;33.50;;;;;;;;;;5122061;27;20181;-52
2022/03/15 03:09:19;;;;;;;40.50;32.30;;;;;;;;;;5134375;27;20027;-48
2022/03/15 03:11:46;;;;;;;40.65;31.63;;;;;;;;;;5124883;27;20024;-49
2022/03/15 03:14:13;;;;;;;38.17;30.53;;;;;;;;;;5114983;27;20023;-49
2022/03/15 03:16:39;;;;;;;43.00;30.40;;;;;;;;;;5106252;28;20042;-49
2022/03/15 03:19:08;;;;;;;45.00;32.65;;;;;;;;;;5113697;28;20044;-50
2022/03/15 03:21:36;;;;;;;38.97;30.65;;;;;;;;;;5115793;27;20051;-49
2022/03/15 03:24:30;;;;;;;38.88;31.23;;;;;;;;;;5134236;27;20379;-50
2022/03/15 03:26:56;;;;;;;41.30;31.03;;;;;;;;;;5115086;27;20023;-50
2022/03/15 03:29:22;;;;;;;45.78;33.05;;;;;;;;;;5113750;28;20023;-49
2022/03/15 03:31:49;;;;;;;41.25;32.53;;;;;;;;;;5120288;27;20098;-51
2022/03/15 03:34:16;;;;;;;40.50;32.30;;;;;;;;;;5115587;27;20567;-49
2022/03/15 03:36:42;;;;;;;44.80;33.15;;;;;;;;;;5114845;27;20146;-49
2022/03/15 03:45:15;;;;;;;40.15;31.95;;;;;;;;;;5127436;27;20038;-51
2022/03/15 03:47:41;;;;;;;41.47;32.58;;;;;;;;;;5130196;27;20035;-51
2022/03/15 03:50:09;;;;;;;41.97;32.40;;;;;;;;;;5095010;27;20084;-50
2022/03/15 03:52:35;;;;;;;45.53;32.53;;;;;;;;;;5112827;28;20472;-48
2022/03/15 03:55:01;;;;;;;45.90;32.47;;;;;;;;;;5123270;27;20074;-49
2022/03/15 03:57:28;;;;;;;40.33;31.57;;;;;;;;;;5128116;27;20388;-48
2022/03/15 03:59:54;;;;;;;41.65;32.45;;;;;;;;;;5112079;27;20182;-54
2022/03/15 04:02:20;;;;;;;41.40;31.55;;;;;;;;;;5114681;27;20551;-51
2022/03/15 04:04:47;;;;;;;43.22;31.70;;;;;;;;;;5116651;27;20491;-55
2022/03/15 04:07:14;;;;;;;41.83;31.30;;;;;;;;;;5105127;28;20480;-53
2022/03/15 04:09:40;;;;;;;44.33;32.88;;;;;;;;;;5128890;27;20023;-53
2022/03/15 04:12:06;;;;;;;44.13;33.75;;;;;;;;;;5116668;27;20064;-53
2022/03/15 04:14:36;;;;;;;45.63;33.92;;;;;;;;;;5132755;27;20034;-52
2022/03/15 04:17:07;;;;;;;43.88;33.90;;;;;;;;;;5114457;28;20039;-51
2022/03/15 04:19:33;;;;;;;42.87;33.67;;;;;;;;;;5124214;28;20031;-52
2022/03/15 04:21:59;;;;;;;46.28;35.38;;;;;;;;;;5127805;28;20024;-49
2022/03/15 04:24:25;;;;;;;46.30;34.20;;;;;;;;;;5096093;28;20020;-51
2022/03/15 04:26:52;;;;;;;44.13;33.70;;;;;;;;;;5112922;28;20361;-51
2022/03/15 04:29:18;;;;;;;45.92;35.22;;;;;;;;;;5132987;28;20034;-51
2022/03/15 04:31:44;;;;;;;46.85;34.63;;;;;;;;;;5131663;28;20030;-49
2022/03/15 04:34:10;;;;;;;43.53;33.80;;;;;;;;;;5114628;28;20024;-49
2022/03/15 04:36:36;;;;;;;46.63;35.47;;;;;;;;;;5113977;28;20396;-49
2022/03/15 04:39:03;;;;;;;45.28;34.10;;;;;;;;;;5133025;28;20102;-50
2022/03/15 04:41:29;;;;;;;49.30;36.30;;;;;;;;;;5130419;28;20023;-50
2022/03/15 04:43:56;;;;;;;47.83;36.17;;;;;;;;;;5133096;28;20513;-48
2022/03/15 04:46:22;;;;;;;48.87;37.43;;;;;;;;;;5097353;28;20059;-49
2022/03/15 04:48:49;;;;;;;45.05;35.80;;;;;;;;;;5114628;28;20418;-49
2022/03/15 04:51:15;;;;;;;46.22;36.35;;;;;;;;;;5123986;28;20023;-48
2022/03/15 04:53:41;;;;;;;47.33;37.10;;;;;;;;;;5094234;28;20080;-48
2022/03/15 04:56:08;;;;;;;49.65;35.85;;;;;;;;;;5122126;28;20035;-51
2022/03/15 04:59:08;;;;;;;48.97;36.67;;;;;;;;;;5114344;28;20023;-50
2022/03/15 05:01:34;;;;;;;47.63;34.67;;;;;;;;;;5120319;28;20023;-51
2022/03/15 05:04:01;;;;;;;46.73;36.07;;;;;;;;;;5112612;28;20027;-53
2022/03/15 05:06:27;;;;;;;47.03;35.55;;;;;;;;;;5113634;27;20024;-48
2022/03/15 05:08:52;;;;;;;45.58;35.50;;;;;;;;;;5136821;27;20035;-49
2022/03/15 05:11:19;;;;;;;49.65;35.83;;;;;;;;;;5109880;28;20484;-49
2022/03/15 05:13:46;;;;;;;48.40;35.93;;;;;;;;;;5131715;27;20072;-50
2022/03/15 05:16:18;;;;;;;50.20;35.90;;;;;;;;;;5134541;27;20027;-49
2022/03/15 05:18:45;;;;;;;46.77;37.17;;;;;;;;;;5136623;27;20043;-50
2022/03/15 05:21:16;;;;;;;46.70;34.95;;;;;;;;;;5117114;27;20068;-50
2022/03/15 05:30:12;;;;;;;48.93;35.20;;;;;;;;;;5120752;27;20042;-51
2022/03/15 05:32:38;;;;;;;47.93;37.07;;;;;;;;;;5122614;27;20380;-52
2022/03/15 05:35:04;;;;;;;46.83;36.53;;;;;;;;;;5136524;27;20046;-51
2022/03/15 05:37:30;;;;;;;49.47;37.00;;;;;;;;;;5119151;27;20031;-52
2022/03/15 05:39:57;;;;;;;49.38;36.53;;;;;;;;;;5136295;27;20027;-49
2022/03/15 05:42:24;;;;;;;49.63;37.67;;;;;;;;;;5121038;27;20031;-49
2022/03/15 05:44:50;;;;;;;49.40;36.83;;;;;;;;;;5136240;27;20030;-52
2022/03/15 05:47:16;;;;;;;45.65;37.20;;;;;;;;;;5116413;27;20031;-54
2022/03/15 05:49:42;;;;;;;48.45;38.60;;;;;;;;;;5135830;27;20464;-53
2022/03/15 05:52:08;;;;;;;44.47;36.73;;;;;;;;;;5116626;27;20434;-51
2022/03/15 05:54:35;;;;;;;49.42;38.47;;;;;;;;;;5122064;27;20028;-53
2022/03/15 05:57:01;;;;;;;54.23;37.63;;;;;;;;;;5116384;27;20122;-49
2022/03/15 05:59:27;;;;;;;47.07;37.57;;;;;;;;;;5128570;27;20028;-49
2022/03/15 06:01:53;;;;;;;50.47;36.23;;;;;;;;;;5129578;27;20477;-48
2022/03/15 06:04:21;;;;;;;50.67;37.75;;;;;;;;;;5135777;27;20023;-52
2022/03/15 06:06:47;;;;;;;48.93;37.53;;;;;;;;;;5118556;27;20134;-50
2022/03/15 06:09:13;;;;;;;51.70;37.60;;;;;;;;;;5121404;27;20099;-50
2022/03/15 06:11:39;;;;;;;54.95;39.20;;;;;;;;;;5127472;27;20384;-51
2022/03/15 06:14:06;;;;;;;49.50;37.47;;;;;;;;;;5130495;27;20023;-50
2022/03/15 06:16:32;;;;;;;49.58;38.25;;;;;;;;;;5130043;27;20039;-51
2022/03/15 06:18:58;;;;;;;51.92;39.55;;;;;;;;;;5135122;27;20058;-50
2022/03/15 06:21:24;;;;;;;50.10;38.03;;;;;;;;;;5116079;27;20032;-50
2022/03/15 06:23:50;;;;;;;50.45;38.22;;;;;;;;;;5135299;27;20102;-48
2022/03/15 06:26:18;;;;;;;51.25;38.85;;;;;;;;;;5130159;27;20023;-50
2022/03/15 06:28:44;;;;;;;52.80;39.40;;;;;;;;;;5126296;27;20019;-52
2022/03/15 06:31:10;;;;;;;51.35;38.67;;;;;;;;;;5131628;27;20788;-48
2022/03/15 06:33:36;;;;;;;50.43;38.33;;;;;;;;;;5114671;28;20019;-50
2022/03/15 06:36:06;;;;;;;54.45;38.85;;;;;;;;;;5128574;27;20086;-51
2022/03/15 06:38:32;;;;;;;53.28;38.50;;;;;;;;;;5114658;28;20444;-49
2022/03/15 06:40:58;;;;;;;55.05;39.67;;;;;;;;;;5096920;27;20031;-48
2022/03/15 06:43:25;;;;;;;52.90;40.05;;;;;;;;;;5130658;27;20499;-52
2022/03/15 06:45:51;;;;;;;55.25;39.40;;;;;;;;;;5134537;27;20114;-54
2022/03/15 06:48:17;;;;;;;49.67;38.78;;;;;;;;;;5133781;27;20038;-49
2022/03/15 06:50:55;;;;;;;53.92;40.20;;;;;;;;;;5134999;27;20069;-53
2022/03/15 06:53:21;;;;;;;50.90;38.72;;;;;;;;;;5108449;27;20492;-54
2022/03/15 06:55:47;;;;;;;52.30;38.17;;;;;;;;;;5134519;27;20039;-54
2022/03/15 06:58:14;;;;;;;57.03;38.73;;;;;;;;;;5130128;27;20019;-50
2022/03/15 07:00:40;;;;;;;52.60;38.83;;;;;;;;;;5131877;27;20015;-51
2022/03/15 07:03:06;;;;;;;53.67;38.53;;;;;;;;;;5132893;27;20030;-49
2022/03/15 07:05:32;;;;;;;58.08;39.92;;;;;;;;;;5115321;27;20038;-54
2022/03/15 07:07:58;;;;;;;59.67;39.88;;;;;;;;;;5117940;27;20080;-52
2022/03/15 07:10:24;;;;;;;54.30;38.28;;;;;;;;;;5134425;27;20027;-48
2022/03/15 07:12:50;;;;;;;51.80;38.78;;;;;;;;;;5132616;27;20034;-48
2022/03/15 07:15:20;;;;;;;54.87;40.13;;;;;;;;;;5133249;27;20019;-50
2022/03/15 07:17:54;;;;;;;49.38;38.78;;;;;;;;;;5103050;27;20047;-51
2022/03/15 07:20:20;;;;;;;54.83;38.72;;;;;;;;;;5133652;27;20023;-48
2022/03/15 07:22:46;;;;;;;50.33;39.90;;;;;;;;;;5119285;27;20046;-52
2022/03/15 07:25:12;;;;;;;54.20;40.58;;;;;;;;;;5117310;27;20047;-53
2022/03/15 07:27:39;;;;;;;54.07;39.77;;;;;;;;;;5113054;27;20028;-53
2022/03/15 07:30:05;;;;;;;54.93;42.17;;;;;;;;;;5113499;27;20158;-54
2022/03/15 07:32:31;;;;;;;61.45;41.17;;;;;;;;;;5123347;27;20023;-50
2022/03/15 07:34:57;;;;;;;54.38;40.45;;;;;;;;;;5133868;27;20031;-54
2022/03/15 07:37:23;;;;;;;60.03;41.83;;;;;;;;;;5128799;27;20035;-52
2022/03/15 07:39:49;;;;;;;53.65;41.28;;;;;;;;;;5113837;27;20065;-53
2022/03/15 07:42:15;;;;;;;58.22;43.03;;;;;;;;;;5113034;28;20055;-52
2022/03/15 07:44:42;;;;;;;55.58;41.83;;;;;;;;;;5113306;28;20035;-54
2022/03/15 07:47:10;;;;;;;55.03;42.05;;;;;;;;;;5113312;28;20046;-53
2022/03/15 07:49:36;;;;;;;58.08;42.95;;;;;;;;;;5113504;28;20498;-51
2022/03/15 07:52:03;;;;;;;59.67;42.45;;;;;;;;;;5113289;28;20062;-54
2022/03/15 07:54:29;;;;;;;53.63;42.10;;;;;;;;;;5113222;27;20085;-53
2022/03/15 07:56:55;;;;;;;58.42;42.65;;;;;;;;;;5113041;28;20067;-52
2022/03/15 07:59:22;;;;;;;56.35;40.97;;;;;;;;;;5113248;28;20436;-52
2022/03/15 08:01:48;;;;;;;55.42;42.42;;;;;;;;;;5113065;28;20084;-51
2022/03/15 08:04:14;;;;;;;59.75;41.08;;;;;;;;;;5116238;27;20531;-50
2022/03/15 08:06:40;;;;;;;58.60;43.25;;;;;;;;;;5112852;28;20045;-54
2022/03/15 08:09:07;;;;;;;59.85;41.90;;;;;;;;;;5112349;27;20019;-53
2022/03/15 08:11:35;;;;;;;54.95;42.33;;;;;;;;;;5094691;28;20027;-51
2022/03/15 08:14:01;;;;;;;55.20;40.78;;;;;;;;;;5125196;27;20023;-48
2022/03/15 08:16:28;;;;;;;58.30;43.30;;;;;;;;;;5132714;27;20111;-48
2022/03/15 08:18:54;;;;;;;60.95;42.50;;;;;;;;;;5119588;28;20481;-54
2022/03/15 08:21:22;;;;;;;57.20;41.85;;;;;;;;;;5112653;28;20030;-51
2022/03/15 08:23:48;;;;;;;55.38;41.35;;;;;;;;;;5112458;28;20019;-55
2022/03/15 08:26:15;;;;;;;60.25;43.35;;;;;;;;;;5112419;28;20023;-51
2022/03/15 08:28:41;;;;;;;55.08;40.38;;;;;;;;;;5121203;28;20045;-55
2022/03/15 08:31:07;;;;;;;60.50;44.03;;;;;;;;;;5127757;28;20020;-54
2022/03/15 08:33:33;;;;;;;62.20;43.72;;;;;;;;;;5108695;28;20023;-52
2022/03/15 08:35:59;;;;;;;63.70;44.72;;;;;;;;;;5132231;28;20038;-52
2022/03/15 08:38:29;;;;;;;61.58;45.88;;;;;;;;;;5132222;27;20031;-55
2022/03/15 08:40:55;;;;;;;59.85;45.65;;;;;;;;;;5135746;27;20019;-53
2022/03/15 08:43:21;;;;;;;59.03;42.35;;;;;;;;;;5116818;27;20034;-52
2022/03/15 08:45:48;;;;;;;58.70;42.58;;;;;;;;;;5137356;27;20110;-49
2022/03/15 08:48:14;;;;;;;56.17;43.15;;;;;;;;;;5135740;27;20062;-48
2022/03/15 08:50:40;;;;;;;55.83;43.03;;;;;;;;;;5137254;27;20019;-49
2022/03/15 08:53:07;;;;;;;60.13;44.33;;;;;;;;;;5114023;28;20050;-50
2022/03/15 08:55:33;;;;;;;74.57;47.35;;;;;;;;;;5115802;28;20361;-50
2022/03/15 08:57:59;;;;;;;64.03;45.95;;;;;;;;;;5116896;27;20036;-49
2022/03/15 09:03:29;;;;;;;61.75;44.60;;;;;;;;;;5121873;27;20505;-51
2022/03/15 09:05:55;;;;;;;59.30;44.10;;;;;;;;;;5116031;28;20143;-48
2022/03/15 09:08:21;;;;;;;59.90;44.15;;;;;;;;;;5097818;28;20032;-54
2022/03/15 09:10:48;;;;;;;63.00;45.28;;;;;;;;;;5129597;27;20026;-47
2022/03/15 09:13:14;;;;;;;55.40;42.67;;;;;;;;;;5120566;27;20019;-46
2022/03/15 09:15:40;;;;;;;68.35;45.70;;;;;;;;;;5126134;27;20388;-46
2022/03/15 09:18:07;;;;;;;57.67;44.83;;;;;;;;;;5126029;27;20553;-49
2022/03/15 09:20:33;;;;;;;61.80;45.65;;;;;;;;;;5128463;27;20015;-47
2022/03/15 09:22:59;;;;;;;58.90;44.10;;;;;;;;;;5125015;27;20468;-47
2022/03/15 09:25:25;;;;;;;61.65;43.90;;;;;;;;;;5134770;27;20023;-47
2022/03/15 09:31:29;;;;;;;58.80;42.67;;;;;;;;;;5119039;27;20097;-48
2022/03/15 09:33:55;;;;;;;62.22;44.65;;;;;;;;;;5117189;27;20027;-48
2022/03/15 09:36:21;;;;;;;55.92;44.47;;;;;;;;;;5115460;28;20031;-47
2022/03/15 09:38:47;;;;;;;58.35;41.70;;;;;;;;;;5127051;27;20023;-49
2022/03/15 09:41:16;;;;;;;65.10;47.58;;;;;;;;;;5132657;27;20417;-47
2022/03/15 09:43:45;;;;;;;63.33;47.33;;;;;;;;;;5114730;27;20027;-46
2022/03/15 09:46:12;;;;;;;59.60;44.97;;;;;;;;;;5117263;27;20371;-48
2022/03/15 09:48:39;;;;;;;55.75;43.45;;;;;;;;;;5134178;27;20030;-47
2022/03/15 09:51:05;;;;;;;59.42;44.63;;;;;;;;;;5116873;27;20034;-47
2022/03/15 09:53:32;;;;;;;68.88;45.65;;;;;;;;;;5105971;28;20060;-46
2022/03/15 09:55:58;;;;;;;54.45;43.78;;;;;;;;;;5114659;27;20114;-48
2022/03/15 09:58:24;;;;;;;58.47;45.00;;;;;;;;;;5134166;27;20389;-48
2022/03/15 10:00:51;;;;;;;57.85;43.92;;;;;;;;;;5132852;27;20054;-47
2022/03/15 10:03:18;;;;;;;58.92;46.45;;;;;;;;;;5134043;27;20031;-47
2022/03/15 10:05:45;;;;;;;58.63;43.42;;;;;;;;;;5127709;27;20464;-47
2022/03/15 10:08:11;;;;;;;59.33;44.10;;;;;;;;;;5121239;27;20057;-46
2022/03/15 10:10:37;;;;;;;60.83;45.58;;;;;;;;;;5135779;27;20047;-46
2022/03/15 10:13:03;;;;;;;62.03;45.47;;;;;;;;;;5130923;27;20023;-46
2022/03/15 10:15:29;;;;;;;57.60;43.58;;;;;;;;;;5135152;27;20027;-46
2022/03/15 10:17:56;;;;;;;56.95;44.40;;;;;;;;;;5133667;27;20460;-45
2022/03/15 10:20:31;;;;;;;58.42;44.53;;;;;;;;;;5135206;27;20106;-46
2022/03/15 10:23:01;;;;;;;62.53;46.33;;;;;;;;;;5115438;27;20057;-47
2022/03/15 10:31:35;;;;;;;61.97;44.30;;;;;;;;;;5125614;27;20139;-47
2022/03/15 10:34:02;;;;;;;57.90;43.53;;;;;;;;;;5096440;28;20128;-46
2022/03/15 10:36:36;;;;;;;56.47;44.05;;;;;;;;;;5114291;28;20534;-49
2022/03/15 10:39:03;;;;;;;58.40;43.55;;;;;;;;;;5113865;27;20038;-52
2022/03/15 10:41:29;;;;;;;61.50;45.65;;;;;;;;;;5114263;28;20036;-46
2022/03/15 10:43:57;;;;;;;61.28;45.53;;;;;;;;;;5107134;27;20038;-47
2022/03/15 10:46:24;;;;;;;61.20;45.00;;;;;;;;;;5134879;27;20019;-47
2022/03/15 10:49:08;;;;;;;60.33;42.97;;;;;;;;;;5122325;27;20046;-47
2022/03/15 10:51:36;;;;;;;56.53;44.42;;;;;;;;;;5116197;27;20367;-47
2022/03/15 10:54:03;;;;;;;56.58;43.00;;;;;;;;;;5131817;27;20108;-47
2022/03/15 10:56:30;;;;;;;56.63;43.30;;;;;;;;;;5133206;27;20495;-49
2022/03/15 10:59:01;;;;;;;61.40;45.28;;;;;;;;;;5132969;27;20063;-48
2022/03/15 11:01:29;;;;;;;58.35;44.60;;;;;;;;;;5125914;27;20036;-47
2022/03/15 11:03:59;;;;;;;56.33;44.65;;;;;;;;;;5126354;27;20035;-47
2022/03/15 11:06:30;;;;;;;60.40;45.42;;;;;;;;;;5135121;27;20069;-48
2022/03/15 11:08:57;;;;;;;65.53;46.22;;;;;;;;;;5133211;27;20434;-47
2022/03/15 11:11:27;;;;;;;61.03;45.75;;;;;;;;;;5134440;27;20030;-47
2022/03/15 11:14:06;;;;;;;61.20;45.55;;;;;;;;;;5132408;27;20389;-48
2022/03/15 11:16:34;;;;;;;55.03;44.42;;;;;;;;;;5115872;27;20309;-47
2022/03/15 11:19:02;;;;;;;59.08;45.20;;;;;;;;;;5133187;27;20487;-47
2022/03/15 11:21:31;;;;;;;58.42;45.03;;;;;;;;;;5134242;27;20092;-49
2022/03/15 11:23:57;;;;;;;60.00;46.25;;;;;;;;;;5122877;27;20027;-47
2022/03/15 11:26:26;;;;;;;65.60;46.70;;;;;;;;;;5132131;27;20080;-47
2022/03/15 11:28:53;;;;;;;61.78;46.72;;;;;;;;;;5108115;28;20019;-48
2022/03/15 11:31:19;;;;;;;61.03;47.78;;;;;;;;;;5113614;28;20028;-48
2022/03/15 11:33:47;;;;;;;62.60;47.13;;;;;;;;;;5118882;27;20019;-46
2022/03/15 11:36:13;;;;;;;57.47;46.58;;;;;;;;;;5133993;27;20389;-48
2022/03/15 11:38:41;;;;;;;61.88;47.00;;;;;;;;;;5131793;27;20027;-47
2022/03/15 11:41:10;;;;;;;59.55;46.58;;;;;;;;;;5134109;27;20027;-48
2022/03/15 11:44:15;;;;;;;62.53;46.45;;;;;;;;;;5110148;27;20035;-47
2022/03/15 11:46:45;;;;;;;60.67;47.08;;;;;;;;;;5030432;28;20028;-47
2022/03/15 11:49:25;;;;;;;58.40;46.63;;;;;;;;;;5029723;28;20040;-52
2022/03/15 11:51:57;;;;;;;61.35;47.63;;;;;;;;;;5079577;28;20491;-47
2022/03/15 11:54:26;;;;;;;61.40;46.70;;;;;;;;;;5132946;27;20035;-48
2022/03/15 11:56:52;;;;;;;61.22;47.70;;;;;;;;;;5105102;28;20396;-49
2022/03/15 11:59:18;;;;;;;60.10;47.55;;;;;;;;;;5132219;27;20024;-48
2022/03/15 12:01:46;;;;;;;67.93;49.30;;;;;;;;;;5133646;27;20484;-54
2022/03/15 12:04:12;;;;;;;58.97;45.50;;;;;;;;;;5132210;27;20372;-48
2022/03/15 12:06:38;;;;;;;60.55;46.25;;;;;;;;;;5100347;28;20396;-48
2022/03/15 12:09:11;;;;;;;58.28;44.85;;;;;;;;;;5113496;27;20026;-48
2022/03/15 12:11:39;;;;;;;60.58;46.72;;;;;;;;;;5126609;27;20027;-47
2022/03/15 12:14:08;;;;;;;60.17;46.42;;;;;;;;;;5129093;27;20019;-52
2022/03/15 12:16:38;;;;;;;62.00;45.72;;;;;;;;;;5118654;27;20032;-52
2022/03/15 12:19:27;;;;;;;61.63;46.90;;;;;;;;;;5129439;28;20265;-49
2022/03/15 12:21:55;;;;;;;58.25;46.45;;;;;;;;;;5097827;28;20122;-46
2022/03/15 12:24:49;;;;;;;62.50;46.33;;;;;;;;;;5112511;28;20369;-49
2022/03/15 12:27:17;;;;;;;63.75;47.63;;;;;;;;;;5132004;28;20026;-48
2022/03/15 12:29:52;;;;;;;60.35;46.90;;;;;;;;;;5133612;28;20027;-49
2022/03/15 12:32:18;;;;;;;61.92;47.53;;;;;;;;;;5119324;28;20049;-46
2022/03/15 12:34:44;;;;;;;65.47;48.55;;;;;;;;;;5094214;28;20034;-46
2022/03/15 12:37:11;;;;;;;62.17;47.88;;;;;;;;;;5129974;28;20027;-46
2022/03/15 12:39:37;;;;;;;63.75;48.85;;;;;;;;;;5129330;28;20015;-49
2022/03/15 12:42:05;;;;;;;61.33;49.47;;;;;;;;;;5129162;28;20098;-47
2022/03/15 12:44:40;;;;;;;65.50;49.33;;;;;;;;;;5114588;28;20027;-48
2022/03/15 12:47:07;;;;;;;61.15;49.88;;;;;;;;;;5128964;28;20376;-47
2022/03/15 12:49:33;;;;;;;62.42;51.67;;;;;;;;;;5132444;28;20058;-47
2022/03/15 12:52:09;;;;;;;64.07;50.40;;;;;;;;;;5123281;28;20555;-48
2022/03/15 12:54:35;;;;;;;68.40;51.58;;;;;;;;;;5119780;28;20023;-50
2022/03/15 12:57:07;;;;;;;69.70;51.17;;;;;;;;;;5103976;28;20802;-47
2022/03/15 12:59:34;;;;;;;64.75;50.25;;;;;;;;;;5118524;28;20102;-47
2022/03/15 13:02:01;;;;;;;63.40;50.30;;;;;;;;;;5122530;28;20024;-47
2022/03/15 13:04:30;;;;;;;67.15;52.03;;;;;;;;;;5118239;28;20460;-49
2022/03/15 13:06:57;;;;;;;64.10;51.05;;;;;;;;;;5126581;28;20023;-49
2022/03/15 13:09:27;;;;;;;63.33;52.03;;;;;;;;;;5124213;28;20459;-47
2022/03/15 13:11:56;;;;;;;67.03;50.85;;;;;;;;;;5115281;28;20088;-46
2022/03/15 13:14:27;;;;;;;70.22;50.85;;;;;;;;;;5105510;28;20019;-49
2022/03/15 13:16:53;;;;;;;68.05;51.42;;;;;;;;;;5118126;28;20464;-48
2022/03/15 13:19:29;;;;;;;64.82;51.42;;;;;;;;;;5121384;28;20179;-48
2022/03/15 13:21:55;;;;;;;63.40;51.33;;;;;;;;;;5133147;28;20030;-46
2022/03/15 13:24:24;;;;;;;66.00;53.38;;;;;;;;;;5127758;27;20087;-46
2022/03/15 13:26:51;;;;;;;64.50;51.55;;;;;;;;;;5128246;27;20023;-48
2022/03/15 13:29:48;;;;;;;64.93;52.83;;;;;;;;;;5114917;27;20019;-47
2022/03/15 13:32:45;;;;;;;63.78;51.50;;;;;;;;;;5108257;27;20064;-48
2022/03/15 13:35:11;;;;;;;69.47;52.67;;;;;;;;;;5125828;27;20043;-47
2022/03/15 13:37:37;;;;;;;67.28;50.22;;;;;;;;;;5132064;27;20075;-48
2022/03/15 13:40:04;;;;;;;61.97;49.13;;;;;;;;;;5107705;27;20048;-47
2022/03/15 13:42:31;;;;;;;63.83;51.08;;;;;;;;;;5112061;27;20494;-48
2022/03/15 13:44:58;;;;;;;65.78;50.63;;;;;;;;;;5108970;27;20491;-49
2022/03/15 13:47:27;;;;;;;68.38;53.58;;;;;;;;;;5135270;27;20023;-50
2022/03/15 13:49:57;;;;;;;70.30;51.05;;;;;;;;;;5119868;27;20362;-50
2022/03/15 13:52:24;;;;;;;63.17;49.78;;;;;;;;;;5110342;27;20556;-50
2022/03/15 13:55:01;;;;;;;64.22;50.15;;;;;;;;;;5131115;27;20085;-49
2022/03/15 13:57:31;;;;;;;65.65;49.30;;;;;;;;;;5123946;27;20129;-51
2022/03/15 14:00:15;;;;;;;65.95;49.75;;;;;;;;;;5125328;27;20031;-51
2022/03/15 14:02:42;;;;;;;65.40;50.75;;;;;;;;;;5125059;27;20039;-50
2022/03/15 14:05:12;;;;;;;65.63;50.60;;;;;;;;;;5126864;27;20024;-51
2022/03/15 14:07:38;;;;;;;67.20;49.72;;;;;;;;;;5124322;27;20029;-48
2022/03/15 14:10:08;;;;;;;64.50;50.80;;;;;;;;;;5128860;27;20023;-48
2022/03/15 14:12:35;;;;;;;68.22;52.05;;;;;;;;;;5118633;27;20477;-48
2022/03/15 14:15:06;;;;;;;63.67;50.10;;;;;;;;;;5123965;27;20031;-49
2022/03/15 14:17:42;;;;;;;63.20;49.67;;;;;;;;;;5119249;27;20051;-47
2022/03/15 14:20:12;;;;;;;64.28;49.25;;;;;;;;;;5106655;27;20023;-49
2022/03/15 14:22:45;;;;;;;60.78;49.28;;;;;;;;;;5123819;27;20473;-50
2022/03/15 14:25:18;;;;;;;64.50;50.92;;;;;;;;;;5120509;27;20025;-51
2022/03/15 14:27:44;;;;;;;60.15;48.42;;;;;;;;;;5119178;27;20031;-48
2022/03/15 14:30:24;;;;;;;61.45;47.75;;;;;;;;;;5134448;27;20442;-47
2022/03/15 14:33:00;;;;;;;62.03;51.28;;;;;;;;;;5123397;27;20637;-48
2022/03/15 14:35:31;;;;;;;63.30;47.88;;;;;;;;;;5124186;27;20080;-48
2022/03/15 14:38:10;;;;;;;59.30;48.13;;;;;;;;;;5129095;27;20038;-48
2022/03/15 14:40:43;;;;;;;60.42;47.15;;;;;;;;;;5130752;27;20031;-47
2022/03/15 14:43:09;;;;;;;63.08;47.78;;;;;;;;;;5132113;27;20126;-47
2022/03/15 14:45:35;;;;;;;58.55;46.20;;;;;;;;;;5127297;27;20039;-47